Time;durP1;ratioP1;P1;durP2;ratioP2;P2;SDS_P1;SDS_P2;PMS_P1;PMS_P2;Temp;Humidity;BMP_temperature;BMP_pressure;BME280_temperature;BME280_humidity;BME280_pressure;Samples;Min_cycle;Max_cycle;Signal;HPM_P1;HPM_P2
2023/06/20 00:02:00;;;;;;;7.27;5.90;;;25.60;54.30;;;;;;5094634;28;20467;-70
2023/06/20 00:04:28;;;;;;;6.17;5.60;;;25.60;54.80;;;;;;5094560;28;20900;-71
2023/06/20 00:06:55;;;;;;;6.43;5.93;;;25.60;54.90;;;;;;5094221;28;20936;-71
2023/06/20 00:09:21;;;;;;;8.90;6.03;;;25.50;55.20;;;;;;5095656;28;20475;-71
2023/06/20 00:11:49;;;;;;;6.90;6.23;;;25.50;55.20;;;;;;5098283;28;20803;-70
2023/06/20 00:14:16;;;;;;;6.37;5.77;;;25.40;55.30;;;;;;5094056;28;20452;-71
2023/06/20 00:16:43;;;;;;;9.57;6.70;;;25.40;55.60;;;;;;5094498;28;20447;-71
2023/06/20 00:19:10;;;;;;;7.03;5.70;;;25.30;56.00;;;;;;5093960;28;20459;-70
2023/06/20 00:21:39;;;;;;;7.57;6.50;;;25.30;55.90;;;;;;5094228;28;20459;-70
2023/06/20 00:24:09;;;;;;;6.27;5.70;;;25.30;55.80;;;;;;5094140;28;20455;-70
2023/06/20 00:26:36;;;;;;;8.90;6.57;;;25.30;55.80;;;;;;5094263;28;20475;-71
2023/06/20 00:29:04;;;;;;;9.13;6.57;;;25.20;55.70;;;;;;5094045;28;20475;-71
2023/06/20 00:31:31;;;;;;;7.17;6.43;;;25.20;56.20;;;;;;5095022;28;20443;-70
2023/06/20 00:33:58;;;;;;;6.60;6.00;;;25.10;56.60;;;;;;5104875;28;20444;-70
2023/06/20 00:36:26;;;;;;;7.83;6.40;;;25.10;56.80;;;;;;5094844;28;20444;-71
2023/06/20 00:38:53;;;;;;;6.60;6.00;;;25.10;57.00;;;;;;5094159;28;20493;-71
2023/06/20 00:41:20;;;;;;;7.43;6.70;;;25.10;57.30;;;;;;5094162;28;20450;-71
2023/06/20 00:43:48;;;;;;;7.53;5.80;;;25.00;57.60;;;;;;5094260;28;20487;-70
2023/06/20 00:46:19;;;;;;;7.43;6.30;;;25.00;58.00;;;;;;5093398;28;20990;-70
2023/06/20 00:48:47;;;;;;;9.67;7.10;;;24.90;57.80;;;;;;5094112;28;20464;-71
2023/06/20 00:51:14;;;;;;;9.33;7.00;;;24.90;58.20;;;;;;5094742;28;20444;-71
2023/06/20 00:53:42;;;;;;;8.03;7.30;;;24.90;58.40;;;;;;5094811;28;20459;-70
2023/06/20 00:56:10;;;;;;;8.40;7.50;;;24.80;58.60;;;;;;5076181;28;20478;-71
2023/06/20 00:58:37;;;;;;;10.93;6.60;;;24.80;58.80;;;;;;5094044;28;20475;-71
2023/06/20 01:01:04;;;;;;;9.70;5.93;;;24.70;59.30;;;;;;5093914;28;20456;-71
2023/06/20 01:03:37;;;;;;;15.30;6.80;;;24.70;59.50;;;;;;5092437;28;21003;-70
2023/06/20 01:06:15;;;;;;;7.70;6.50;;;24.70;59.50;;;;;;5094158;28;20459;-70
2023/06/20 01:08:50;;;;;;;7.80;6.20;;;24.70;59.60;;;;;;5093338;28;20475;-70
2023/06/20 01:11:29;;;;;;;7.13;6.33;;;24.70;59.90;;;;;;5075359;28;20534;-70
2023/06/20 01:14:02;;;;;;;8.90;6.87;;;24.60;60.20;;;;;;5094043;28;20432;-70
2023/06/20 01:16:37;;;;;;;8.90;7.73;;;24.60;60.10;;;;;;5093639;28;20428;-71
2023/06/20 01:19:15;;;;;;;8.20;6.93;;;24.60;60.30;;;;;;5093573;28;20454;-70
2023/06/20 01:21:59;;;;;;;9.27;7.13;;;24.60;60.80;;;;;;5093113;28;20446;-70
2023/06/20 01:24:34;;;;;;;9.37;7.47;;;24.60;60.90;;;;;;5093352;28;20435;-70
2023/06/20 01:27:08;;;;;;;11.20;7.73;;;24.60;60.60;;;;;;5093633;28;20424;-70
2023/06/20 01:29:40;;;;;;;15.30;8.77;;;24.60;60.50;;;;;;5092196;28;20490;-71
2023/06/20 01:32:12;;;;;;;15.90;7.03;;;24.60;60.50;;;;;;5093480;28;20464;-70
2023/06/20 01:34:48;;;;;;;16.97;8.10;;;24.60;60.80;;;;;;5093598;28;20424;-70
2023/06/20 01:37:18;;;;;;;14.83;8.30;;;24.60;60.80;;;;;;5093747;28;20428;-71
2023/06/20 01:39:48;;;;;;;10.87;6.83;;;24.50;60.90;;;;;;5093023;28;20450;-71
2023/06/20 01:42:17;;;;;;;15.33;7.47;;;24.50;61.50;;;;;;5096290;28;20991;-70
2023/06/20 01:44:46;;;;;;;13.93;8.53;;;24.50;62.00;;;;;;5096044;28;20439;-70
2023/06/20 01:47:15;;;;;;;20.67;8.23;;;24.50;60.30;;;;;;5096891;28;20804;-71
2023/06/20 01:49:43;;;;;;;17.37;7.27;;;24.50;59.50;;;;;;5096996;28;20479;-71
2023/06/20 01:52:13;;;;;;;13.20;7.00;;;24.50;59.00;;;;;;5096599;28;20979;-70
2023/06/20 01:54:41;;;;;;;23.63;9.03;;;24.50;59.50;;;;;;5097269;28;20454;-71
2023/06/20 01:57:10;;;;;;;20.87;7.20;;;24.40;60.50;;;;;;5106950;28;20503;-71
2023/06/20 01:59:37;;;;;;;19.93;7.03;;;24.40;60.30;;;;;;5096977;28;20497;-71
2023/06/20 02:02:06;;;;;;;16.17;7.00;;;24.30;60.50;;;;;;5097359;28;20464;-70
2023/06/20 02:04:35;;;;;;;12.53;6.60;;;24.20;60.30;;;;;;5096716;28;20968;-71
2023/06/20 02:07:03;;;;;;;9.37;5.63;;;24.20;60.30;;;;;;5096852;28;20458;-70
2023/06/20 02:09:31;;;;;;;17.63;6.50;;;24.20;61.50;;;;;;5096269;28;20983;-71
2023/06/20 02:11:59;;;;;;;10.77;5.53;;;24.10;60.90;;;;;;5078777;28;20502;-70
2023/06/20 02:14:27;;;;;;;9.50;5.90;;;24.10;61.90;;;;;;5096572;28;20444;-71
2023/06/20 02:16:56;;;;;;;8.27;6.00;;;24.10;61.70;;;;;;5096464;28;20456;-71
2023/06/20 02:19:23;;;;;;;10.03;5.33;;;24.10;61.90;;;;;;5096317;28;20575;-70
2023/06/20 02:21:50;;;;;;;10.83;5.07;;;24.10;62.60;;;;;;5096467;28;20452;-70
2023/06/20 02:24:20;;;;;;;9.80;5.00;;;24.20;63.00;;;;;;5096518;28;20450;-70
2023/06/20 02:26:49;;;;;;;13.33;6.00;;;24.20;63.10;;;;;;5096414;28;20452;-70
2023/06/20 02:29:17;;;;;;;6.40;5.10;;;24.20;63.90;;;;;;5096396;28;20479;-71
2023/06/20 02:31:48;;;;;;;5.87;4.43;;;24.30;65.20;;;;;;5096664;28;20477;-70
2023/06/20 02:34:19;;;;;;;8.57;4.83;;;24.30;65.30;;;;;;5096469;28;20448;-71
2023/06/20 02:36:48;;;;;;;8.50;5.23;;;24.20;64.60;;;;;;5096539;28;20469;-71
2023/06/20 02:39:15;;;;;;;6.93;4.70;;;24.30;64.80;;;;;;5096118;28;20872;-71
2023/06/20 02:41:42;;;;;;;5.23;4.73;;;24.30;64.60;;;;;;5096434;28;20439;-70
2023/06/20 02:44:09;;;;;;;8.70;4.70;;;24.30;64.70;;;;;;5096049;28;20475;-71
2023/06/20 02:46:45;;;;;;;5.80;4.73;;;24.30;64.30;;;;;;5096122;28;20448;-71
2023/06/20 02:49:20;;;;;;;9.13;5.00;;;24.40;64.10;;;;;;5095578;28;20990;-70
2023/06/20 02:51:57;;;;;;;9.43;4.83;;;24.40;64.50;;;;;;5096019;28;20428;-70
2023/06/20 02:54:30;;;;;;;11.40;4.57;;;24.40;64.50;;;;;;5096006;28;20514;-70
2023/06/20 02:57:02;;;;;;;7.80;4.50;;;24.40;65.60;;;;;;5096421;28;20838;-70
2023/06/20 02:59:31;;;;;;;7.73;5.50;;;24.40;66.50;;;;;;5095907;28;20424;-70
2023/06/20 03:02:02;;;;;;;8.90;5.83;;;24.40;67.60;;;;;;5095764;28;20502;-70
2023/06/20 03:04:34;;;;;;;6.23;4.80;;;24.40;67.00;;;;;;5095896;28;20444;-70
2023/06/20 03:07:03;;;;;;;8.87;5.30;;;24.40;67.10;;;;;;5095201;28;20459;-71
2023/06/20 03:09:31;;;;;;;7.10;5.57;;;24.40;67.70;;;;;;5095415;28;20479;-70
2023/06/20 03:11:59;;;;;;;6.70;4.87;;;24.40;68.30;;;;;;5095664;28;20474;-69
2023/06/20 03:14:26;;;;;;;10.47;5.20;;;24.40;68.60;;;;;;5095608;28;20451;-70
2023/06/20 03:16:52;;;;;;;11.50;5.50;;;24.30;68.70;;;;;;5095288;28;20451;-70
2023/06/20 03:19:19;;;;;;;14.77;6.07;;;24.30;69.20;;;;;;5095644;28;20501;-69
2023/06/20 03:21:47;;;;;;;13.93;6.00;;;24.20;70.30;;;;;;5095306;28;20440;-69
2023/06/20 03:24:14;;;;;;;12.80;6.33;;;24.20;71.30;;;;;;5095084;28;20822;-70
2023/06/20 03:26:42;;;;;;;15.87;5.63;;;24.20;72.50;;;;;;5100701;28;20448;-70
2023/06/20 03:29:09;;;;;;;12.90;6.47;;;24.10;73.00;;;;;;5102130;28;20483;-70
2023/06/20 03:31:36;;;;;;;13.70;7.40;;;24.10;73.30;;;;;;5095631;28;20921;-69
2023/06/20 03:34:03;;;;;;;12.27;6.97;;;24.10;73.80;;;;;;5095299;28;20455;-70
2023/06/20 03:36:29;;;;;;;14.07;6.90;;;24.10;74.40;;;;;;5095590;28;20455;-71
2023/06/20 03:38:57;;;;;;;13.37;6.13;;;24.00;75.00;;;;;;5095956;28;20451;-71
2023/06/20 03:41:25;;;;;;;9.33;6.40;;;24.00;76.00;;;;;;5095985;28;20455;-70
2023/06/20 03:43:51;;;;;;;10.97;6.40;;;24.00;77.40;;;;;;5095063;28;20478;-70
2023/06/20 03:46:18;;;;;;;11.60;5.57;;;23.90;77.70;;;;;;5095495;28;20444;-69
2023/06/20 03:48:45;;;;;;;6.87;5.50;;;23.80;78.00;;;;;;5095127;28;21010;-70
2023/06/20 03:51:11;;;;;;;9.20;5.20;;;23.80;78.80;;;;;;5095751;28;20450;-69
2023/06/20 03:53:38;;;;;;;7.93;4.87;;;23.80;79.30;;;;;;5095504;28;20843;-70
2023/06/20 03:56:06;;;;;;;6.83;5.10;;;23.80;79.40;;;;;;5095939;28;20439;-70
2023/06/20 03:58:34;;;;;;;5.90;4.77;;;23.70;79.30;;;;;;5095933;28;20473;-70
2023/06/20 04:01:04;;;;;;;9.70;4.47;;;23.70;79.90;;;;;;5094873;28;20893;-70
2023/06/20 04:03:31;;;;;;;7.00;4.77;;;23.80;80.30;;;;;;5095254;28;20472;-69
2023/06/20 04:06:02;;;;;;;6.30;4.43;;;23.70;80.40;;;;;;5106246;28;20440;-70
2023/06/20 04:08:29;;;;;;;5.27;4.60;;;23.70;80.70;;;;;;5098570;28;20432;-69
2023/06/20 04:10:56;;;;;;;6.00;5.00;;;23.70;80.80;;;;;;5098010;28;20444;-69
2023/06/20 04:13:24;;;;;;;6.20;5.03;;;23.70;81.20;;;;;;5095596;28;20577;-69
2023/06/20 04:15:51;;;;;;;7.63;5.17;;;23.70;81.10;;;;;;5096066;28;20443;-70
2023/06/20 04:18:18;;;;;;;6.50;5.17;;;23.70;81.00;;;;;;5096181;28;20451;-70
2023/06/20 04:20:44;;;;;;;7.60;5.00;;;23.70;81.20;;;;;;5095437;28;20439;-70
2023/06/20 04:23:11;;;;;;;7.80;4.83;;;23.60;81.20;;;;;;5094503;28;20463;-70
2023/06/20 04:25:38;;;;;;;5.40;4.60;;;23.60;82.00;;;;;;5093999;28;20439;-70
2023/06/20 04:28:05;;;;;;;8.87;4.43;;;23.60;82.00;;;;;;5094186;28;20439;-69
2023/06/20 04:30:33;;;;;;;8.00;4.40;;;23.50;82.10;;;;;;5094123;28;20484;-70
2023/06/20 04:33:00;;;;;;;6.30;3.83;;;23.50;81.90;;;;;;5094079;28;20463;-70
2023/06/20 04:35:27;;;;;;;6.30;4.70;;;23.50;81.60;;;;;;5093743;28;20948;-69
2023/06/20 04:37:53;;;;;;;7.67;3.93;;;23.60;82.10;;;;;;5093921;28;20448;-70
2023/06/20 04:40:20;;;;;;;5.33;4.00;;;23.60;82.00;;;;;;5093582;28;20443;-70
2023/06/20 04:42:47;;;;;;;6.93;4.93;;;23.60;82.30;;;;;;5093961;28;20464;-69
2023/06/20 04:45:14;;;;;;;7.47;5.30;;;23.60;82.50;;;;;;5093873;28;20443;-70
2023/06/20 04:47:43;;;;;;;6.63;3.77;;;23.60;83.00;;;;;;5093945;28;20850;-70
2023/06/20 04:50:10;;;;;;;7.30;4.10;;;23.70;82.60;;;;;;5092458;28;21019;-70
2023/06/20 04:52:37;;;;;;;5.00;3.43;;;23.70;83.00;;;;;;5093802;28;20540;-70
2023/06/20 04:55:04;;;;;;;4.67;3.90;;;23.70;82.80;;;;;;5093980;28;20454;-70
2023/06/20 04:57:31;;;;;;;7.77;4.70;;;23.70;82.50;;;;;;5093602;28;20857;-70
2023/06/20 04:59:58;;;;;;;5.17;4.20;;;23.80;82.80;;;;;;5093576;28;20504;-71
2023/06/20 05:02:26;;;;;;;4.23;3.83;;;23.80;83.10;;;;;;5092231;28;20976;-70
2023/06/20 05:04:54;;;;;;;6.13;4.03;;;23.80;83.20;;;;;;5093562;28;20451;-70
2023/06/20 05:07:22;;;;;;;10.80;4.70;;;23.80;82.60;;;;;;5093559;28;20455;-71
2023/06/20 05:09:49;;;;;;;6.53;3.87;;;24.00;83.00;;;;;;5093366;28;20479;-71
2023/06/20 05:12:16;;;;;;;8.73;4.40;;;24.00;82.80;;;;;;5093472;28;20463;-70
2023/06/20 05:14:43;;;;;;;5.80;4.83;;;24.10;82.80;;;;;;5093238;28;20949;-71
2023/06/20 05:17:10;;;;;;;5.07;4.57;;;24.10;82.80;;;;;;5096557;28;20479;-71
2023/06/20 05:19:37;;;;;;;6.13;4.43;;;24.20;82.20;;;;;;5097498;28;20895;-70
2023/06/20 05:22:06;;;;;;;4.83;4.20;;;24.10;82.00;;;;;;5097686;28;20464;-70
2023/06/20 05:24:33;;;;;;;8.63;4.57;;;24.20;82.10;;;;;;5097591;28;20446;-70
2023/06/20 05:27:00;;;;;;;5.40;4.73;;;24.20;81.90;;;;;;5097496;28;20452;-70
2023/06/20 05:29:27;;;;;;;5.23;4.77;;;24.30;81.90;;;;;;5098444;28;20798;-70
2023/06/20 05:31:53;;;;;;;5.90;5.20;;;24.30;82.10;;;;;;5097424;28;20463;-69
2023/06/20 05:34:21;;;;;;;10.73;5.73;;;24.30;82.50;;;;;;5097313;28;20447;-70
2023/06/20 05:36:48;;;;;;;6.20;5.60;;;24.30;82.50;;;;;;5097620;28;20477;-69
2023/06/20 05:39:16;;;;;;;6.00;4.80;;;24.30;82.80;;;;;;5096938;28;20442;-70
2023/06/20 05:41:43;;;;;;;5.93;4.70;;;24.40;82.80;;;;;;5097178;28;20446;-69
2023/06/20 05:44:10;;;;;;;7.30;5.43;;;24.40;82.60;;;;;;5097277;28;20444;-71
2023/06/20 05:46:37;;;;;;;7.97;4.80;;;24.40;82.90;;;;;;5097462;28;20451;-70
2023/06/20 05:49:03;;;;;;;8.33;5.00;;;24.50;83.40;;;;;;5096750;28;20454;-70
2023/06/20 05:51:30;;;;;;;5.37;4.87;;;24.50;82.80;;;;;;5096850;28;20458;-69
2023/06/20 05:53:57;;;;;;;5.90;5.30;;;24.60;82.60;;;;;;5096790;28;20936;-69
2023/06/20 05:56:26;;;;;;;5.57;4.77;;;24.70;82.60;;;;;;5095341;28;20990;-70
2023/06/20 05:58:52;;;;;;;5.37;4.20;;;24.70;82.40;;;;;;5096785;28;20479;-70
2023/06/20 06:01:19;;;;;;;5.03;4.33;;;24.80;81.40;;;;;;5096794;28;20500;-70
2023/06/20 06:03:47;;;;;;;4.37;4.00;;;24.80;81.30;;;;;;5096759;28;20964;-70
2023/06/20 06:06:14;;;;;;;5.20;4.80;;;24.90;81.20;;;;;;5096651;28;20451;-70
2023/06/20 06:08:41;;;;;;;4.57;4.27;;;25.00;80.50;;;;;;5096673;28;20443;-70
2023/06/20 06:11:09;;;;;;;4.67;4.23;;;25.00;80.20;;;;;;5096451;28;20486;-70
2023/06/20 06:13:38;;;;;;;4.43;4.03;;;25.00;80.30;;;;;;5096687;28;20550;-69
2023/06/20 06:16:05;;;;;;;5.77;5.37;;;25.00;79.20;;;;;;5105826;28;20448;-70
2023/06/20 06:18:32;;;;;;;5.20;4.77;;;25.00;79.10;;;;;;5099602;28;21017;-70
2023/06/20 06:20:59;;;;;;;4.70;4.30;;;25.00;79.00;;;;;;5100808;28;20443;-70
2023/06/20 06:23:26;;;;;;;4.90;4.50;;;25.00;79.50;;;;;;5109373;28;20513;-69
2023/06/20 06:25:53;;;;;;;4.87;4.13;;;25.00;79.50;;;;;;5102476;28;20940;-70
2023/06/20 06:28:21;;;;;;;4.87;4.47;;;25.00;79.80;;;;;;5097786;28;20451;-70
2023/06/20 06:30:49;;;;;;;5.27;4.87;;;25.10;80.00;;;;;;5097626;28;20483;-70
2023/06/20 06:33:16;;;;;;;4.80;4.40;;;25.10;79.60;;;;;;5100363;28;20980;-69
2023/06/20 06:35:44;;;;;;;5.30;4.80;;;25.10;79.00;;;;;;5102040;28;20451;-70
2023/06/20 06:38:11;;;;;;;7.50;5.00;;;25.20;80.30;;;;;;5100919;28;20542;-70
2023/06/20 06:40:38;;;;;;;5.23;4.73;;;25.30;79.10;;;;;;5100093;28;20443;-70
2023/06/20 06:43:05;;;;;;;8.93;5.17;;;25.40;78.70;;;;;;5099926;28;20815;-70
2023/06/20 06:45:33;;;;;;;6.47;4.97;;;25.50;78.60;;;;;;5099615;28;20459;-70
2023/06/20 06:48:01;;;;;;;5.37;4.90;;;25.60;77.70;;;;;;5098744;28;20983;-71
2023/06/20 06:50:27;;;;;;;6.10;5.60;;;25.80;77.20;;;;;;5097724;28;20480;-70
2023/06/20 06:52:54;;;;;;;5.40;4.90;;;25.90;76.70;;;;;;5098612;28;20988;-70
2023/06/20 06:55:21;;;;;;;4.80;4.43;;;26.10;76.10;;;;;;5097507;28;20839;-71
2023/06/20 06:57:48;;;;;;;6.00;5.50;;;26.30;75.20;;;;;;5097470;28;20447;-71
2023/06/20 07:00:16;;;;;;;7.90;6.23;;;26.40;74.40;;;;;;5095527;28;20937;-71
2023/06/20 07:02:45;;;;;;;5.10;4.47;;;26.50;73.50;;;;;;5097056;28;20850;-70
2023/06/20 07:05:14;;;;;;;6.17;5.67;;;26.60;73.10;;;;;;5095183;28;20464;-71
2023/06/20 07:07:40;;;;;;;6.50;5.63;;;26.70;72.30;;;;;;5096386;28;20475;-71
2023/06/20 07:10:09;;;;;;;6.47;5.87;;;26.80;72.00;;;;;;5095778;28;20992;-70
2023/06/20 07:12:36;;;;;;;7.60;6.77;;;26.80;71.30;;;;;;5096672;28;20472;-70
2023/06/20 07:15:02;;;;;;;7.03;6.53;;;26.70;70.70;;;;;;5096250;28;20489;-71
2023/06/20 07:17:29;;;;;;;6.90;6.20;;;26.70;71.40;;;;;;5095964;28;20963;-71
2023/06/20 07:19:56;;;;;;;5.47;5.07;;;26.70;71.70;;;;;;5096038;28;20452;-71
2023/06/20 07:22:24;;;;;;;8.03;5.20;;;26.70;71.60;;;;;;5096030;28;20483;-69
2023/06/20 07:24:51;;;;;;;6.57;5.93;;;26.80;70.80;;;;;;5096766;28;20487;-71
2023/06/20 07:27:18;;;;;;;7.50;6.00;;;27.10;70.40;;;;;;5096127;28;20439;-71
2023/06/20 07:29:45;;;;;;;6.90;6.30;;;27.30;69.30;;;;;;5096058;28;20448;-71
2023/06/20 07:32:14;;;;;;;5.37;4.97;;;27.50;68.90;;;;;;5095590;28;20502;-70
2023/06/20 07:34:41;;;;;;;5.00;4.60;;;27.60;67.20;;;;;;5096349;28;20545;-71
2023/06/20 07:37:07;;;;;;;8.67;6.37;;;27.80;66.20;;;;;;5094342;28;20451;-71
2023/06/20 07:39:39;;;;;;;6.13;5.40;;;28.10;66.00;;;;;;5095651;28;20451;-71
2023/06/20 07:42:07;;;;;;;6.80;6.10;;;28.30;63.80;;;;;;5094957;28;21003;-70
2023/06/20 07:44:34;;;;;;;7.20;5.70;;;28.50;62.80;;;;;;5096034;28;20463;-71
2023/06/20 07:47:00;;;;;;;8.73;6.97;;;28.70;61.40;;;;;;5094638;28;20440;-70
2023/06/20 07:49:28;;;;;;;6.07;5.47;;;28.90;60.70;;;;;;5095159;28;20452;-71
2023/06/20 07:51:54;;;;;;;6.80;5.87;;;29.10;59.50;;;;;;5094795;28;20837;-70
2023/06/20 07:54:21;;;;;;;7.63;6.27;;;29.50;59.10;;;;;;5095343;28;20447;-70
2023/06/20 07:56:49;;;;;;;6.43;4.90;;;29.80;58.00;;;;;;5094856;28;20448;-71
2023/06/20 07:59:16;;;;;;;6.63;5.60;;;30.00;57.10;;;;;;5094445;28;20829;-71
2023/06/20 08:01:43;;;;;;;6.07;5.67;;;30.20;56.30;;;;;;5094882;28;20444;-70
2023/06/20 08:04:10;;;;;;;5.20;4.70;;;30.40;56.10;;;;;;5095675;28;20451;-70
2023/06/20 08:06:37;;;;;;;6.13;5.53;;;30.60;54.70;;;;;;5094786;28;20459;-71
2023/06/20 08:09:05;;;;;;;6.00;5.40;;;30.80;53.90;;;;;;5095338;28;20530;-71
2023/06/20 08:11:33;;;;;;;5.43;4.93;;;31.00;53.40;;;;;;5094685;28;20914;-70
2023/06/20 08:14:01;;;;;;;6.50;5.90;;;31.10;52.80;;;;;;5094287;28;20904;-71
2023/06/20 08:16:28;;;;;;;6.73;6.13;;;31.30;52.20;;;;;;5094453;28;20442;-70
2023/06/20 08:18:54;;;;;;;6.13;5.70;;;31.40;51.70;;;;;;5094086;28;20451;-70
2023/06/20 08:21:21;;;;;;;6.20;5.70;;;31.50;51.20;;;;;;5094309;28;20478;-71
2023/06/20 08:23:48;;;;;;;6.20;5.70;;;31.60;51.00;;;;;;5094322;28;20467;-71
2023/06/20 08:26:15;;;;;;;7.47;6.50;;;31.70;50.40;;;;;;5094694;28;20447;-70
2023/06/20 08:28:42;;;;;;;6.20;5.70;;;31.70;50.00;;;;;;5094121;28;20436;-70
2023/06/20 08:31:10;;;;;;;7.30;6.57;;;31.60;49.60;;;;;;5098212;28;20475;-71
2023/06/20 08:33:37;;;;;;;5.80;5.03;;;31.50;49.70;;;;;;5105283;28;20455;-70
2023/06/20 08:36:04;;;;;;;7.00;5.50;;;31.40;49.60;;;;;;5100676;28;20458;-70
2023/06/20 08:38:31;;;;;;;6.97;6.37;;;31.50;50.40;;;;;;5098791;28;20543;-70
2023/06/20 08:40:58;;;;;;;8.30;5.80;;;31.60;49.00;;;;;;5096633;28;20457;-71
2023/06/20 08:43:26;;;;;;;7.50;6.07;;;31.60;49.50;;;;;;5094590;28;20902;-70
2023/06/20 08:45:55;;;;;;;7.93;6.17;;;31.70;49.10;;;;;;5094641;28;20525;-71
2023/06/20 08:48:24;;;;;;;8.03;5.70;;;31.80;48.70;;;;;;5093077;28;20508;-70
2023/06/20 08:50:51;;;;;;;6.30;5.80;;;32.00;48.40;;;;;;5093383;28;20566;-71
2023/06/20 08:53:19;;;;;;;6.07;5.67;;;32.30;48.00;;;;;;5093900;28;20999;-71
2023/06/20 08:55:48;;;;;;;6.07;5.57;;;32.50;47.00;;;;;;5093735;28;20970;-70
2023/06/20 08:58:15;;;;;;;6.80;6.27;;;32.60;45.80;;;;;;5094016;28;20447;-71
2023/06/20 09:00:44;;;;;;;6.43;5.70;;;32.50;45.50;;;;;;5094466;28;20442;-72
2023/06/20 09:03:11;;;;;;;5.70;5.20;;;32.60;45.30;;;;;;5093900;28;20498;-71
2023/06/20 09:05:45;;;;;;;6.20;5.70;;;32.70;45.00;;;;;;5094124;28;20450;-71
2023/06/20 09:08:14;;;;;;;5.70;5.20;;;32.70;44.90;;;;;;5093781;28;20474;-71
2023/06/20 09:10:41;;;;;;;5.30;4.70;;;32.70;44.90;;;;;;5092302;28;21046;-72
2023/06/20 09:13:08;;;;;;;6.57;5.83;;;32.70;44.50;;;;;;5093637;28;20471;-71
2023/06/20 09:15:36;;;;;;;4.40;4.10;;;32.90;44.10;;;;;;5093758;28;20443;-72
2023/06/20 09:18:03;;;;;;;6.40;5.80;;;33.10;43.80;;;;;;5104559;28;20507;-72
2023/06/20 09:20:32;;;;;;;5.80;5.40;;;33.40;43.50;;;;;;5098964;28;20443;-71
2023/06/20 09:23:00;;;;;;;7.67;4.50;;;33.60;43.00;;;;;;5095082;28;20470;-71
2023/06/20 09:25:29;;;;;;;5.93;5.40;;;33.80;43.00;;;;;;5092883;28;20447;-72
2023/06/20 09:27:57;;;;;;;5.63;5.23;;;33.90;42.60;;;;;;5093858;28;20447;-72
2023/06/20 09:30:23;;;;;;;7.40;5.67;;;33.90;42.00;;;;;;5093867;28;20899;-72
2023/06/20 09:32:50;;;;;;;6.47;5.90;;;33.90;42.20;;;;;;5094099;28;20468;-71
2023/06/20 09:35:18;;;;;;;5.63;5.23;;;34.00;42.30;;;;;;5093497;28;20448;-72
2023/06/20 09:37:46;;;;;;;5.97;5.47;;;34.00;41.60;;;;;;5092373;28;20497;-72
2023/06/20 09:40:16;;;;;;;6.43;5.83;;;34.00;41.40;;;;;;5093456;28;20454;-71
2023/06/20 09:42:44;;;;;;;5.67;5.17;;;34.20;40.90;;;;;;5093507;28;20467;-71
2023/06/20 09:45:13;;;;;;;6.03;5.53;;;34.40;40.90;;;;;;5093400;28;20443;-72
2023/06/20 09:47:42;;;;;;;6.03;5.53;;;34.60;41.20;;;;;;5093244;28;20861;-72
2023/06/20 09:50:13;;;;;;;6.13;5.53;;;34.70;40.00;;;;;;5092814;28;20868;-72
2023/06/20 09:52:44;;;;;;;5.30;5.00;;;35.10;40.60;;;;;;5094099;28;20923;-71
2023/06/20 09:55:12;;;;;;;4.70;4.40;;;35.40;39.80;;;;;;5092836;28;20427;-71
2023/06/20 09:57:45;;;;;;;5.23;4.83;;;35.70;38.80;;;;;;5093811;28;20444;-72
2023/06/20 10:00:14;;;;;;;5.17;4.63;;;36.00;37.20;;;;;;5093185;28;21038;-72
2023/06/20 10:02:44;;;;;;;4.87;4.47;;;36.30;37.20;;;;;;5095500;28;20300;-71
2023/06/20 10:05:13;;;;;;;4.77;4.37;;;36.50;36.10;;;;;;5096960;28;20197;-71
2023/06/20 10:07:42;;;;;;;4.67;4.37;;;36.60;35.00;;;;;;5078573;28;20203;-71
2023/06/20 10:10:10;;;;;;;5.90;5.30;;;36.80;35.30;;;;;;5096886;28;20211;-72
2023/06/20 10:12:38;;;;;;;4.88;4.47;;;37.10;35.40;;;;;;5095713;28;20263;-71
2023/06/20 10:15:08;;;;;;;4.63;4.33;;;37.40;33.40;;;;;;5097051;28;20205;-72
2023/06/20 10:17:42;;;;;;;5.00;4.60;;;37.60;33.10;;;;;;5096466;28;20666;-72
2023/06/20 10:20:20;;;;;;;4.95;4.55;;;37.90;32.40;;;;;;5096873;28;20192;-71
2023/06/20 10:22:50;;;;;;;5.60;4.70;;;38.20;31.10;;;;;;5096505;28;20220;-72
2023/06/20 10:25:18;;;;;;;4.57;4.18;;;38.50;31.20;;;;;;5095160;28;20669;-72
2023/06/20 10:27:55;;;;;;;5.50;4.88;;;39.00;30.00;;;;;;5096954;28;20208;-72
2023/06/20 10:30:58;;;;;;;4.30;4.00;;;39.60;31.00;;;;;;5096928;28;20185;-72
2023/06/20 10:33:25;;;;;;;4.57;4.28;;;40.40;29.90;;;;;;5096252;28;20221;-71
2023/06/20 10:35:55;;;;;;;4.00;3.70;;;41.00;27.30;;;;;;5096591;28;20284;-72
2023/06/20 10:38:22;;;;;;;4.35;4.03;;;41.20;27.20;;;;;;5096169;28;20232;-72
2023/06/20 10:40:49;;;;;;;4.43;4.13;;;41.10;27.10;;;;;;5096164;28;20205;-73
2023/06/20 10:43:19;;;;;;;4.05;3.80;;;41.40;27.60;;;;;;5095708;28;20220;-72
2023/06/20 10:45:53;;;;;;;4.90;4.60;;;41.90;27.10;;;;;;5105484;28;20211;-72
2023/06/20 10:48:21;;;;;;;4.20;3.80;;;42.40;26.20;;;;;;5103043;28;20656;-72
2023/06/20 10:50:48;;;;;;;3.50;3.20;;;42.90;25.70;;;;;;5101208;28;20214;-72
2023/06/20 10:53:15;;;;;;;3.58;3.38;;;43.40;23.80;;;;;;5098722;28;20740;-72
2023/06/20 10:55:42;;;;;;;3.95;3.60;;;43.60;23.70;;;;;;5097009;28;20201;-73
2023/06/20 10:58:09;;;;;;;4.20;3.80;;;43.70;23.50;;;;;;5097123;28;20204;-73
2023/06/20 11:00:36;;;;;;;4.95;4.10;;;43.80;23.20;;;;;;5096143;28;20209;-73
2023/06/20 11:03:03;;;;;;;4.38;3.95;;;44.00;23.00;;;;;;5096044;28;20221;-71
2023/06/20 11:05:31;;;;;;;4.03;3.72;;;44.30;23.50;;;;;;5097007;28;20205;-73
2023/06/20 11:07:59;;;;;;;4.00;3.70;;;44.70;22.30;;;;;;5096252;28;20197;-73
2023/06/20 11:10:31;;;;;;;4.50;3.40;;;44.80;22.10;;;;;;5095895;28;20232;-73
2023/06/20 11:12:59;;;;;;;4.35;3.65;;;45.00;21.80;;;;;;5095345;28;20228;-72
2023/06/20 11:15:29;;;;;;;3.80;3.50;;;45.20;22.40;;;;;;5095335;28;20201;-73
2023/06/20 11:17:57;;;;;;;4.07;3.50;;;45.10;22.90;;;;;;5094436;28;20213;-72
2023/06/20 11:20:25;;;;;;;4.85;4.07;;;45.20;21.70;;;;;;5095354;28;20212;-72
2023/06/20 11:22:55;;;;;;;4.22;3.30;;;45.50;22.30;;;;;;5095566;28;20228;-72
2023/06/20 11:25:27;;;;;;;4.32;3.58;;;46.10;22.00;;;;;;5095899;28;20201;-73
2023/06/20 11:27:54;;;;;;;3.25;3.05;;;46.60;20.70;;;;;;5095619;28;20190;-73
2023/06/20 11:30:25;;;;;;;4.20;3.78;;;46.90;20.80;;;;;;5095827;28;20202;-72
2023/06/20 11:33:00;;;;;;;3.42;3.17;;;47.30;19.60;;;;;;5096488;28;20225;-72
2023/06/20 11:35:49;;;;;;;3.47;3.17;;;47.30;20.10;;;;;;5095224;28;20620;-73
2023/06/20 11:38:20;;;;;;;3.28;3.00;;;47.70;20.20;;;;;;5095391;28;20186;-72
2023/06/20 11:40:47;;;;;;;4.05;3.67;;;48.20;19.40;;;;;;5095339;28;20190;-72
2023/06/20 11:43:23;;;;;;;3.67;3.35;;;48.10;18.70;;;;;;5095385;28;20717;-72
2023/06/20 11:45:50;;;;;;;3.40;3.20;;;47.70;18.70;;;;;;5095332;28;20243;-72
2023/06/20 11:48:19;;;;;;;3.58;3.28;;;47.10;19.20;;;;;;5094171;28;20200;-72
2023/06/20 11:50:55;;;;;;;4.38;3.28;;;46.60;19.80;;;;;;5095298;28;20224;-72
2023/06/20 11:53:26;;;;;;;3.20;3.00;;;46.50;19.70;;;;;;5095544;28;20220;-72
2023/06/20 11:55:55;;;;;;;3.97;3.67;;;46.70;19.80;;;;;;5095738;28;20207;-73
2023/06/20 11:58:22;;;;;;;2.75;2.55;;;47.00;19.20;;;;;;5109678;28;20607;-71
2023/06/20 12:01:04;;;;;;;4.03;3.42;;;47.30;19.30;;;;;;5115330;28;20319;-72
2023/06/20 12:03:31;;;;;;;3.38;3.00;;;47.80;19.00;;;;;;5115307;28;20224;-72
2023/06/20 12:05:58;;;;;;;3.30;3.10;;;48.30;18.60;;;;;;5115676;28;20196;-72
2023/06/20 12:08:33;;;;;;;3.40;3.20;;;48.80;17.90;;;;;;5115633;28;20204;-73
2023/06/20 12:11:01;;;;;;;3.17;2.97;;;49.20;18.20;;;;;;5116142;28;20191;-73
2023/06/20 12:13:28;;;;;;;2.95;2.67;;;49.50;17.00;;;;;;5127137;28;20709;-72
2023/06/20 12:15:56;;;;;;;3.42;2.90;;;49.50;16.60;;;;;;5116358;28;20236;-72
2023/06/20 12:18:23;;;;;;;3.85;3.20;;;49.50;16.90;;;;;;5115245;28;20295;-73
2023/06/20 12:20:49;;;;;;;3.40;3.20;;;49.70;17.60;;;;;;5115885;28;20200;-72
2023/06/20 12:23:18;;;;;;;3.60;3.40;;;49.90;17.00;;;;;;5115345;28;20216;-72
2023/06/20 12:25:46;;;;;;;3.42;3.13;;;50.10;17.30;;;;;;5114875;28;20200;-73
2023/06/20 12:28:13;;;;;;;3.72;3.10;;;50.30;16.40;;;;;;5114787;28;20204;-73
2023/06/20 12:30:40;;;;;;;3.10;2.90;;;50.10;16.60;;;;;;5114568;28;20205;-73
2023/06/20 12:33:09;;;;;;;5.20;3.50;;;49.60;17.50;;;;;;5115034;28;20231;-73
2023/06/20 12:35:36;;;;;;;3.60;3.30;;;48.90;17.40;;;;;;5114863;28;20204;-73
2023/06/20 12:38:03;;;;;;;5.05;3.78;;;48.80;18.30;;;;;;5114563;28;20232;-73
2023/06/20 12:40:30;;;;;;;3.47;3.17;;;48.70;17.50;;;;;;5113926;28;20204;-72
2023/06/20 12:42:58;;;;;;;3.45;3.15;;;48.90;17.70;;;;;;5114166;28;20220;-72
2023/06/20 12:45:25;;;;;;;3.30;3.10;;;49.00;18.30;;;;;;5114111;28;20664;-73
2023/06/20 12:47:52;;;;;;;4.25;2.97;;;49.20;18.40;;;;;;5114346;28;20204;-73
2023/06/20 12:50:19;;;;;;;3.50;3.30;;;49.50;17.90;;;;;;5114533;28;20227;-72
2023/06/20 12:52:46;;;;;;;3.28;2.97;;;49.80;16.60;;;;;;5113996;28;20314;-72